sensor_id;sensor_type;location;lat;lon;timestamp;pressure;altitude;pressure_sealevel;temperature;humidity
72677;BME280;60755;51.374;10.662;2023-12-29T00:01:56;96678.22;;;7.37;85.21
72677;BME280;60755;51.374;10.662;2023-12-29T00:04:25;96687.53;;;7.56;85.57
72677;BME280;60755;51.374;10.662;2023-12-29T00:06:51;96688.91;;;7.58;84.53
72677;BME280;60755;51.374;10.662;2023-12-29T00:09:19;96679.22;;;7.59;84.54
72677;BME280;60755;51.374;10.662;2023-12-29T00:11:49;96694.72;;;7.49;84.85
72677;BME280;60755;51.374;10.662;2023-12-29T00:14:16;96695.47;;;7.61;84.06
72677;BME280;60755;51.374;10.662;2023-12-29T00:16:43;96704.25;;;7.67;83.88
72677;BME280;60755;51.374;10.662;2023-12-29T00:19:11;96690.13;;;7.68;84.72
72677;BME280;60755;51.374;10.662;2023-12-29T00:21:38;96688.53;;;7.67;83.60
72677;BME280;60755;51.374;10.662;2023-12-29T00:24:05;96681.84;;;7.71;84.23
72677;BME280;60755;51.374;10.662;2023-12-29T00:26:32;96677.06;;;7.79;84.00
72677;BME280;60755;51.374;10.662;2023-12-29T00:29:00;96682.16;;;7.86;82.84
72677;BME280;60755;51.374;10.662;2023-12-29T00:31:27;96675.13;;;7.87;83.98
72677;BME280;60755;51.374;10.662;2023-12-29T00:33:54;96675.13;;;7.87;83.18
72677;BME280;60755;51.374;10.662;2023-12-29T00:36:21;96677.13;;;7.84;83.70
72677;BME280;60755;51.374;10.662;2023-12-29T00:38:49;96659.06;;;7.83;82.31
72677;BME280;60755;51.374;10.662;2023-12-29T00:41:17;96649.91;;;7.57;84.41
72677;BME280;60755;51.374;10.662;2023-12-29T00:43:44;96640.03;;;7.47;85.13
72677;BME280;60755;51.374;10.662;2023-12-29T00:46:14;96654.25;;;7.40;86.37
72677;BME280;60755;51.374;10.662;2023-12-29T00:48:41;96658.22;;;7.42;86.40
72677;BME280;60755;51.374;10.662;2023-12-29T00:51:08;96653.22;;;7.29;85.47
72677;BME280;60755;51.374;10.662;2023-12-29T00:53:36;96651.28;;;7.48;85.90
72677;BME280;60755;51.374;10.662;2023-12-29T00:56:09;96650.25;;;7.37;84.78
72677;BME280;60755;51.374;10.662;2023-12-29T00:58:36;96641.88;;;7.23;85.74
72677;BME280;60755;51.374;10.662;2023-12-29T01:01:03;96644.38;;;7.30;85.69
72677;BME280;60755;51.374;10.662;2023-12-29T01:03:33;96643.13;;;7.33;86.80
72677;BME280;60755;51.374;10.662;2023-12-29T01:06:00;96627.09;;;7.29;86.88
72677;BME280;60755;51.374;10.662;2023-12-29T01:08:27;96627.34;;;7.16;86.85
72677;BME280;60755;51.374;10.662;2023-12-29T01:10:54;96618.72;;;7.15;87.39
72677;BME280;60755;51.374;10.662;2023-12-29T01:13:21;96618.59;;;7.10;86.49
72677;BME280;60755;51.374;10.662;2023-12-29T01:15:48;96618.59;;;7.22;85.80
72677;BME280;60755;51.374;10.662;2023-12-29T01:18:15;96615.41;;;7.20;88.40
72677;BME280;60755;51.374;10.662;2023-12-29T01:20:43;96620.38;;;7.21;86.11
72677;BME280;60755;51.374;10.662;2023-12-29T01:23:10;96608.03;;;7.17;86.02
72677;BME280;60755;51.374;10.662;2023-12-29T01:25:37;96620.88;;;7.07;87.14
72677;BME280;60755;51.374;10.662;2023-12-29T01:28:05;96615.66;;;7.07;86.99
72677;BME280;60755;51.374;10.662;2023-12-29T01:30:32;96616.97;;;6.97;87.45
72677;BME280;60755;51.374;10.662;2023-12-29T01:32:59;96619.06;;;7.07;87.62
72677;BME280;60755;51.374;10.662;2023-12-29T01:35:26;96612.09;;;7.13;87.15
72677;BME280;60755;51.374;10.662;2023-12-29T01:37:54;96610.41;;;7.18;87.23
72677;BME280;60755;51.374;10.662;2023-12-29T01:40:22;96607.34;;;7.10;87.74
72677;BME280;60755;51.374;10.662;2023-12-29T01:42:49;96596.44;;;7.13;86.66
72677;BME280;60755;51.374;10.662;2023-12-29T01:45:21;96612.47;;;7.16;87.71
72677;BME280;60755;51.374;10.662;2023-12-29T01:47:49;96621.19;;;7.10;88.17
72677;BME280;60755;51.374;10.662;2023-12-29T01:50:16;96622.78;;;7.11;89.02
72677;BME280;60755;51.374;10.662;2023-12-29T01:52:44;96631.75;;;7.04;88.63
72677;BME280;60755;51.374;10.662;2023-12-29T01:55:16;96624.59;;;7.11;88.16
72677;BME280;60755;51.374;10.662;2023-12-29T01:57:44;96625.19;;;7.24;88.79
72677;BME280;60755;51.374;10.662;2023-12-29T02:00:12;96624.25;;;7.19;88.46
72677;BME280;60755;51.374;10.662;2023-12-29T02:02:42;96620.16;;;7.11;88.99
72677;BME280;60755;51.374;10.662;2023-12-29T02:05:13;96619.81;;;7.19;89.39
72677;BME280;60755;51.374;10.662;2023-12-29T02:07:41;96597.53;;;7.28;88.36
72677;BME280;60755;51.374;10.662;2023-12-29T02:10:09;96602.34;;;7.20;89.36
72677;BME280;60755;51.374;10.662;2023-12-29T02:12:40;96601.22;;;7.16;89.38
72677;BME280;60755;51.374;10.662;2023-12-29T02:15:08;96601.66;;;7.24;88.70
72677;BME280;60755;51.374;10.662;2023-12-29T02:17:39;96607.09;;;7.11;87.97
72677;BME280;60755;51.374;10.662;2023-12-29T02:20:08;96591.56;;;7.16;89.24
72677;BME280;60755;51.374;10.662;2023-12-29T02:22:36;96591.53;;;7.28;87.68
72677;BME280;60755;51.374;10.662;2023-12-29T02:25:05;96589.34;;;7.37;87.55
72677;BME280;60755;51.374;10.662;2023-12-29T02:27:40;96572.91;;;7.24;88.00
72677;BME280;60755;51.374;10.662;2023-12-29T02:30:10;96570.38;;;7.29;87.31
72677;BME280;60755;51.374;10.662;2023-12-29T02:32:39;96577.31;;;7.36;88.16
72677;BME280;60755;51.374;10.662;2023-12-29T02:35:09;96589.72;;;7.28;88.53
72677;BME280;60755;51.374;10.662;2023-12-29T02:37:38;96583.91;;;7.26;88.57
72677;BME280;60755;51.374;10.662;2023-12-29T02:40:09;96575.88;;;7.16;88.10
72677;BME280;60755;51.374;10.662;2023-12-29T02:42:36;96575.28;;;7.26;88.19
72677;BME280;60755;51.374;10.662;2023-12-29T02:45:03;96580.59;;;7.43;87.25
72677;BME280;60755;51.374;10.662;2023-12-29T02:47:31;96572.66;;;7.38;87.86
72677;BME280;60755;51.374;10.662;2023-12-29T02:49:58;96573.34;;;7.21;88.28
72677;BME280;60755;51.374;10.662;2023-12-29T02:52:26;96572.91;;;7.24;88.09
72677;BME280;60755;51.374;10.662;2023-12-29T02:54:53;96586.53;;;7.26;86.67
72677;BME280;60755;51.374;10.662;2023-12-29T02:57:21;96569.47;;;7.36;86.39
72677;BME280;60755;51.374;10.662;2023-12-29T02:59:48;96563.00;;;7.38;86.19
72677;BME280;60755;51.374;10.662;2023-12-29T03:02:16;96557.78;;;7.26;86.51
72677;BME280;60755;51.374;10.662;2023-12-29T03:04:43;96571.56;;;7.22;86.68
72677;BME280;60755;51.374;10.662;2023-12-29T03:07:10;96568.13;;;7.33;86.67
72677;BME280;60755;51.374;10.662;2023-12-29T03:09:37;96566.09;;;7.23;86.87
72677;BME280;60755;51.374;10.662;2023-12-29T03:12:04;96582.44;;;7.31;86.74
72677;BME280;60755;51.374;10.662;2023-12-29T03:14:34;96583.81;;;7.33;86.31
72677;BME280;60755;51.374;10.662;2023-12-29T03:17:01;96573.66;;;7.48;85.33
72677;BME280;60755;51.374;10.662;2023-12-29T03:19:28;96563.66;;;7.45;86.31
72677;BME280;60755;51.374;10.662;2023-12-29T03:21:55;96556.41;;;7.36;86.84
72677;BME280;60755;51.374;10.662;2023-12-29T03:24:22;96564.25;;;7.36;87.45
72677;BME280;60755;51.374;10.662;2023-12-29T03:26:48;96566.84;;;7.36;86.38
72677;BME280;60755;51.374;10.662;2023-12-29T03:29:15;96570.38;;;7.29;86.53
72677;BME280;60755;51.374;10.662;2023-12-29T03:31:43;96574.69;;;7.36;86.38
72677;BME280;60755;51.374;10.662;2023-12-29T03:34:11;96573.59;;;7.32;86.93
72677;BME280;60755;51.374;10.662;2023-12-29T03:36:38;96556.97;;;7.38;87.20
72677;BME280;60755;51.374;10.662;2023-12-29T03:39:05;96557.19;;;7.48;85.45
72677;BME280;60755;51.374;10.662;2023-12-29T03:41:33;96564.19;;;7.59;85.95
72677;BME280;60755;51.374;10.662;2023-12-29T03:44:00;96562.72;;;7.51;85.73
72677;BME280;60755;51.374;10.662;2023-12-29T03:46:27;96563.34;;;7.42;85.90
72677;BME280;60755;51.374;10.662;2023-12-29T03:48:55;96554.41;;;7.66;85.36
72677;BME280;60755;51.374;10.662;2023-12-29T03:51:22;96566.84;;;7.47;86.59
72677;BME280;60755;51.374;10.662;2023-12-29T03:53:49;96567.06;;;7.46;86.87
72677;BME280;60755;51.374;10.662;2023-12-29T03:56:17;96566.91;;;7.64;86.26
72677;BME280;60755;51.374;10.662;2023-12-29T03:58:45;96561.34;;;7.61;85.21
72677;BME280;60755;51.374;10.662;2023-12-29T04:01:14;96565.47;;;7.56;85.04
72677;BME280;60755;51.374;10.662;2023-12-29T04:03:43;96559.34;;;7.79;85.68
72677;BME280;60755;51.374;10.662;2023-12-29T04:06:11;96545.69;;;7.77;85.65
72677;BME280;60755;51.374;10.662;2023-12-29T04:08:38;96550.47;;;7.80;85.30
72677;BME280;60755;51.374;10.662;2023-12-29T04:11:05;96550.94;;;7.77;85.70
72677;BME280;60755;51.374;10.662;2023-12-29T04:13:32;96542.66;;;7.97;83.74
72677;BME280;60755;51.374;10.662;2023-12-29T04:16:00;96551.47;;;8.08;84.56
72677;BME280;60755;51.374;10.662;2023-12-29T04:18:28;96536.09;;;7.95;85.29
72677;BME280;60755;51.374;10.662;2023-12-29T04:20:55;96530.38;;;7.98;83.80
72677;BME280;60755;51.374;10.662;2023-12-29T04:23:24;96539.72;;;7.94;84.53
72677;BME280;60755;51.374;10.662;2023-12-29T04:25:51;96527.22;;;7.96;84.59
72677;BME280;60755;51.374;10.662;2023-12-29T04:28:18;96525.81;;;8.05;83.80
72677;BME280;60755;51.374;10.662;2023-12-29T04:30:45;96524.66;;;8.01;84.07
72677;BME280;60755;51.374;10.662;2023-12-29T04:33:12;96515.25;;;8.00;83.55
72677;BME280;60755;51.374;10.662;2023-12-29T04:35:39;96506.38;;;8.18;83.77
72677;BME280;60755;51.374;10.662;2023-12-29T04:38:06;96501.53;;;8.09;84.13
72677;BME280;60755;51.374;10.662;2023-12-29T04:40:36;96507.94;;;8.02;83.23
72677;BME280;60755;51.374;10.662;2023-12-29T04:43:03;96512.16;;;8.03;83.62
72677;BME280;60755;51.374;10.662;2023-12-29T04:45:30;96514.06;;;8.07;84.41
72677;BME280;60755;51.374;10.662;2023-12-29T04:47:57;96508.59;;;8.09;82.77
72677;BME280;60755;51.374;10.662;2023-12-29T04:50:25;96515.03;;;8.18;84.20
72677;BME280;60755;51.374;10.662;2023-12-29T04:52:51;96509.81;;;8.18;84.05
72677;BME280;60755;51.374;10.662;2023-12-29T04:55:18;96497.28;;;8.20;82.91
72677;BME280;60755;51.374;10.662;2023-12-29T04:57:47;96502.81;;;8.24;82.56
72677;BME280;60755;51.374;10.662;2023-12-29T05:00:14;96503.75;;;8.18;83.50
72677;BME280;60755;51.374;10.662;2023-12-29T05:02:42;96509.63;;;8.08;83.91
72677;BME280;60755;51.374;10.662;2023-12-29T05:05:09;96504.56;;;8.18;82.34
72677;BME280;60755;51.374;10.662;2023-12-29T05:07:36;96499.34;;;8.18;83.51
72677;BME280;60755;51.374;10.662;2023-12-29T05:10:03;96489.09;;;8.17;83.22
72677;BME280;60755;51.374;10.662;2023-12-29T05:12:30;96494.06;;;8.01;83.22
72677;BME280;60755;51.374;10.662;2023-12-29T05:14:59;96495.50;;;8.09;84.09
72677;BME280;60755;51.374;10.662;2023-12-29T05:17:26;96494.56;;;8.15;83.58
72677;BME280;60755;51.374;10.662;2023-12-29T05:19:52;96492.19;;;8.13;82.95
72677;BME280;60755;51.374;10.662;2023-12-29T05:22:19;96493.91;;;8.08;84.63
72677;BME280;60755;51.374;10.662;2023-12-29T05:24:47;96493.84;;;8.03;83.55
72677;BME280;60755;51.374;10.662;2023-12-29T05:27:13;96498.28;;;8.02;84.94
72677;BME280;60755;51.374;10.662;2023-12-29T05:29:41;96501.06;;;7.96;84.10
72677;BME280;60755;51.374;10.662;2023-12-29T05:32:09;96504.13;;;7.93;84.71
72677;BME280;60755;51.374;10.662;2023-12-29T05:34:36;96499.63;;;8.05;83.90
72677;BME280;60755;51.374;10.662;2023-12-29T05:37:03;96499.28;;;7.84;85.40
72677;BME280;60755;51.374;10.662;2023-12-29T05:39:30;96498.47;;;7.84;85.38
72677;BME280;60755;51.374;10.662;2023-12-29T05:41:57;96505.72;;;7.94;85.22
72677;BME280;60755;51.374;10.662;2023-12-29T05:44:24;96506.28;;;7.96;84.26
72677;BME280;60755;51.374;10.662;2023-12-29T05:46:51;96506.34;;;8.01;84.69
72677;BME280;60755;51.374;10.662;2023-12-29T05:49:25;96514.47;;;8.16;83.59
72677;BME280;60755;51.374;10.662;2023-12-29T05:51:52;96510.75;;;8.12;83.89
72677;BME280;60755;51.374;10.662;2023-12-29T05:54:19;96523.44;;;8.20;83.24
72677;BME280;60755;51.374;10.662;2023-12-29T05:56:46;96520.75;;;8.32;83.30
72677;BME280;60755;51.374;10.662;2023-12-29T05:59:14;96523.28;;;8.27;82.76
72677;BME280;60755;51.374;10.662;2023-12-29T06:01:41;96524.69;;;8.18;84.66
72677;BME280;60755;51.374;10.662;2023-12-29T06:04:08;96529.78;;;8.24;82.83
72677;BME280;60755;51.374;10.662;2023-12-29T06:06:36;96546.13;;;8.31;82.17
72677;BME280;60755;51.374;10.662;2023-12-29T06:09:03;96544.41;;;8.54;83.61
72677;BME280;60755;51.374;10.662;2023-12-29T06:11:30;96534.34;;;8.46;81.93
72677;BME280;60755;51.374;10.662;2023-12-29T06:13:57;96528.06;;;8.47;83.18
72677;BME280;60755;51.374;10.662;2023-12-29T06:16:25;96522.00;;;8.29;82.84
72677;BME280;60755;51.374;10.662;2023-12-29T06:18:52;96537.09;;;8.56;84.08
72677;BME280;60755;51.374;10.662;2023-12-29T06:21:20;96525.94;;;8.44;82.14
72677;BME280;60755;51.374;10.662;2023-12-29T06:23:48;96524.94;;;8.33;83.61
72677;BME280;60755;51.374;10.662;2023-12-29T06:26:16;96526.78;;;8.49;82.80
72677;BME280;60755;51.374;10.662;2023-12-29T06:28:43;96539.59;;;8.46;83.70
72677;BME280;60755;51.374;10.662;2023-12-29T06:31:11;96524.81;;;8.39;82.94
72677;BME280;60755;51.374;10.662;2023-12-29T06:33:40;96523.13;;;8.33;83.49
72677;BME280;60755;51.374;10.662;2023-12-29T06:36:08;96513.63;;;8.27;83.65
72677;BME280;60755;51.374;10.662;2023-12-29T06:38:36;96520.72;;;8.15;84.63
72677;BME280;60755;51.374;10.662;2023-12-29T06:41:05;96528.81;;;8.13;83.59
72677;BME280;60755;51.374;10.662;2023-12-29T06:43:32;96531.97;;;7.99;84.37
72677;BME280;60755;51.374;10.662;2023-12-29T06:46:00;96518.75;;;8.05;85.07
72677;BME280;60755;51.374;10.662;2023-12-29T06:48:27;96528.69;;;8.20;85.03
72677;BME280;60755;51.374;10.662;2023-12-29T06:50:54;96525.28;;;8.20;83.52
72677;BME280;60755;51.374;10.662;2023-12-29T06:53:21;96535.59;;;8.26;83.40
72677;BME280;60755;51.374;10.662;2023-12-29T06:55:48;96527.75;;;8.26;83.21
72677;BME280;60755;51.374;10.662;2023-12-29T06:58:16;96523.50;;;8.08;84.05
72677;BME280;60755;51.374;10.662;2023-12-29T07:00:43;96522.69;;;8.08;85.01
72677;BME280;60755;51.374;10.662;2023-12-29T07:03:12;96536.72;;;8.02;85.65
72677;BME280;60755;51.374;10.662;2023-12-29T07:05:40;96530.88;;;7.95;85.11
72677;BME280;60755;51.374;10.662;2023-12-29T07:08:07;96537.84;;;8.06;86.56
72677;BME280;60755;51.374;10.662;2023-12-29T07:10:34;96539.91;;;8.04;86.00
72677;BME280;60755;51.374;10.662;2023-12-29T07:13:01;96528.81;;;7.97;86.62
72677;BME280;60755;51.374;10.662;2023-12-29T07:15:29;96537.84;;;8.06;85.48
72677;BME280;60755;51.374;10.662;2023-12-29T07:17:56;96539.59;;;8.17;84.66
72677;BME280;60755;51.374;10.662;2023-12-29T07:20:23;96544.06;;;8.33;83.65
72677;BME280;60755;51.374;10.662;2023-12-29T07:22:50;96535.00;;;8.24;84.70
72677;BME280;60755;51.374;10.662;2023-12-29T07:25:17;96546.78;;;8.38;84.94
72677;BME280;60755;51.374;10.662;2023-12-29T07:27:45;96544.47;;;8.42;84.24
72677;BME280;60755;51.374;10.662;2023-12-29T07:30:13;96544.66;;;8.35;85.25
72677;BME280;60755;51.374;10.662;2023-12-29T07:32:41;96542.97;;;8.29;84.93
72677;BME280;60755;51.374;10.662;2023-12-29T07:35:09;96536.97;;;8.46;84.79
72677;BME280;60755;51.374;10.662;2023-12-29T07:37:36;96544.72;;;8.40;84.16
72677;BME280;60755;51.374;10.662;2023-12-29T07:40:03;96538.63;;;8.52;84.48
72677;BME280;60755;51.374;10.662;2023-12-29T07:42:33;96554.34;;;8.52;83.22
72677;BME280;60755;51.374;10.662;2023-12-29T07:45:00;96552.66;;;8.46;84.47
72677;BME280;60755;51.374;10.662;2023-12-29T07:47:27;96541.25;;;8.52;85.87
72677;BME280;60755;51.374;10.662;2023-12-29T07:49:56;96547.28;;;8.52;84.18
72677;BME280;60755;51.374;10.662;2023-12-29T07:52:23;96552.50;;;8.35;85.17
72677;BME280;60755;51.374;10.662;2023-12-29T07:54:50;96544.28;;;8.44;85.12
72677;BME280;60755;51.374;10.662;2023-12-29T07:57:17;96566.25;;;8.59;85.00
72677;BME280;60755;51.374;10.662;2023-12-29T07:59:44;96551.72;;;8.68;84.09
72677;BME280;60755;51.374;10.662;2023-12-29T08:02:11;96538.22;;;8.60;84.80
72677;BME280;60755;51.374;10.662;2023-12-29T08:04:38;96554.41;;;8.57;84.88
72677;BME280;60755;51.374;10.662;2023-12-29T08:07:06;96558.00;;;8.51;84.21
72677;BME280;60755;51.374;10.662;2023-12-29T08:09:33;96553.78;;;8.50;85.96
72677;BME280;60755;51.374;10.662;2023-12-29T08:12:00;96550.19;;;8.56;84.78
72677;BME280;60755;51.374;10.662;2023-12-29T08:14:27;96552.97;;;8.49;86.41
72677;BME280;60755;51.374;10.662;2023-12-29T08:16:54;96561.56;;;8.45;86.30
72677;BME280;60755;51.374;10.662;2023-12-29T08:19:22;96552.50;;;8.35;85.80
72677;BME280;60755;51.374;10.662;2023-12-29T08:21:50;96557.28;;;8.38;86.61
72677;BME280;60755;51.374;10.662;2023-12-29T08:24:18;96566.94;;;8.55;85.21
72677;BME280;60755;51.374;10.662;2023-12-29T08:26:46;96564.56;;;8.36;86.07
72677;BME280;60755;51.374;10.662;2023-12-29T08:29:14;96549.97;;;8.40;85.41
72677;BME280;60755;51.374;10.662;2023-12-29T08:31:41;96550.84;;;8.46;85.95
72677;BME280;60755;51.374;10.662;2023-12-29T08:34:08;96554.09;;;8.53;85.58
72677;BME280;60755;51.374;10.662;2023-12-29T08:36:35;96561.47;;;8.56;84.94
72677;BME280;60755;51.374;10.662;2023-12-29T08:39:02;96560.13;;;8.54;86.58
72677;BME280;60755;51.374;10.662;2023-12-29T08:41:31;96562.06;;;8.58;85.82
72677;BME280;60755;51.374;10.662;2023-12-29T08:43:58;96565.69;;;8.57;84.74
72677;BME280;60755;51.374;10.662;2023-12-29T08:46:24;96548.56;;;8.66;85.62
72677;BME280;60755;51.374;10.662;2023-12-29T08:48:51;96552.81;;;8.73;84.20
72677;BME280;60755;51.374;10.662;2023-12-29T08:51:18;96554.91;;;8.54;85.17
72677;BME280;60755;51.374;10.662;2023-12-29T08:53:45;96552.28;;;8.54;86.59
72677;BME280;60755;51.374;10.662;2023-12-29T08:56:12;96555.53;;;8.61;85.70
72677;BME280;60755;51.374;10.662;2023-12-29T08:58:42;96556.81;;;8.58;85.33
72677;BME280;60755;51.374;10.662;2023-12-29T09:01:09;96563.94;;;8.80;85.21
72677;BME280;60755;51.374;10.662;2023-12-29T09:03:36;96568.69;;;8.83;84.79
72677;BME280;60755;51.374;10.662;2023-12-29T09:06:04;96578.38;;;8.82;84.78
72677;BME280;60755;51.374;10.662;2023-12-29T09:08:34;96566.94;;;8.88;84.34
72677;BME280;60755;51.374;10.662;2023-12-29T09:11:01;96549.88;;;8.86;84.66
72677;BME280;60755;51.374;10.662;2023-12-29T09:13:28;96556.59;;;8.82;84.55
72677;BME280;60755;51.374;10.662;2023-12-29T09:15:56;96545.03;;;8.78;85.50
72677;BME280;60755;51.374;10.662;2023-12-29T09:18:23;96545.72;;;8.90;83.86
72677;BME280;60755;51.374;10.662;2023-12-29T09:20:51;96552.25;;;8.87;83.38
72677;BME280;60755;51.374;10.662;2023-12-29T09:23:18;96556.78;;;9.14;84.18
72677;BME280;60755;51.374;10.662;2023-12-29T09:25:45;96574.94;;;9.15;82.91
72677;BME280;60755;51.374;10.662;2023-12-29T09:28:12;96574.81;;;9.27;83.42
72677;BME280;60755;51.374;10.662;2023-12-29T09:30:39;96573.41;;;9.19;83.06
72677;BME280;60755;51.374;10.662;2023-12-29T09:33:08;96563.81;;;9.30;82.22
72677;BME280;60755;51.374;10.662;2023-12-29T09:35:38;96567.47;;;9.07;83.68
72677;BME280;60755;51.374;10.662;2023-12-29T09:38:05;96556.19;;;9.07;83.88
72677;BME280;60755;51.374;10.662;2023-12-29T09:40:32;96562.84;;;9.14;83.05
72677;BME280;60755;51.374;10.662;2023-12-29T09:43:01;96551.47;;;9.25;83.10
72677;BME280;60755;51.374;10.662;2023-12-29T09:45:30;96568.31;;;9.13;83.18
72677;BME280;60755;51.374;10.662;2023-12-29T09:48:01;96565.28;;;9.21;83.08
72677;BME280;60755;51.374;10.662;2023-12-29T09:50:29;96573.41;;;9.19;83.06
72677;BME280;60755;51.374;10.662;2023-12-29T09:52:57;96554.38;;;9.07;82.60
72677;BME280;60755;51.374;10.662;2023-12-29T09:55:25;96565.16;;;9.11;84.45
72677;BME280;60755;51.374;10.662;2023-12-29T09:57:53;96560.69;;;9.11;84.25
72677;BME280;60755;51.374;10.662;2023-12-29T10:00:20;96563.28;;;8.89;84.32
72677;BME280;60755;51.374;10.662;2023-12-29T10:02:51;96560.41;;;9.08;83.62
72677;BME280;60755;51.374;10.662;2023-12-29T10:05:18;96559.91;;;9.11;83.42
72677;BME280;60755;51.374;10.662;2023-12-29T10:07:47;96551.38;;;9.20;82.80
72677;BME280;60755;51.374;10.662;2023-12-29T10:10:15;96550.53;;;9.15;83.32
72677;BME280;60755;51.374;10.662;2023-12-29T10:12:43;96543.88;;;9.07;84.06
72677;BME280;60755;51.374;10.662;2023-12-29T10:15:15;96546.00;;;9.10;83.73
72677;BME280;60755;51.374;10.662;2023-12-29T10:17:56;96552.66;;;9.18;84.36
72677;BME280;60755;51.374;10.662;2023-12-29T10:20:36;96545.53;;;9.13;84.34
72677;BME280;60755;51.374;10.662;2023-12-29T10:23:11;96548.97;;;8.97;84.51
72677;BME280;60755;51.374;10.662;2023-12-29T10:25:40;96536.50;;;9.04;84.47
72677;BME280;60755;51.374;10.662;2023-12-29T10:28:07;96538.44;;;9.31;83.37
72677;BME280;60755;51.374;10.662;2023-12-29T10:30:36;96547.56;;;9.28;83.87
72677;BME280;60755;51.374;10.662;2023-12-29T10:33:04;96544.56;;;9.41;83.40
72677;BME280;60755;51.374;10.662;2023-12-29T10:35:31;96537.06;;;9.28;83.99
72677;BME280;60755;51.374;10.662;2023-12-29T10:38:09;96528.34;;;9.44;83.84
72677;BME280;60755;51.374;10.662;2023-12-29T10:40:37;96531.09;;;9.55;83.96
72677;BME280;60755;51.374;10.662;2023-12-29T10:43:04;96539.34;;;9.63;84.53
72677;BME280;60755;51.374;10.662;2023-12-29T10:45:33;96531.56;;;9.51;85.02
72677;BME280;60755;51.374;10.662;2023-12-29T10:48:00;96529.16;;;9.23;87.27
72677;BME280;60755;51.374;10.662;2023-12-29T10:50:27;96524.19;;;9.05;87.76
72677;BME280;60755;51.374;10.662;2023-12-29T10:53:14;96529.16;;;8.84;88.95
72677;BME280;60755;51.374;10.662;2023-12-29T10:55:42;96521.88;;;9.08;89.54
72677;BME280;60755;51.374;10.662;2023-12-29T10:58:10;96519.25;;;9.08;89.81
72677;BME280;60755;51.374;10.662;2023-12-29T11:00:37;96530.84;;;9.34;89.92
72677;BME280;60755;51.374;10.662;2023-12-29T11:03:04;96533.47;;;9.34;88.77
72677;BME280;60755;51.374;10.662;2023-12-29T11:05:32;96512.31;;;9.41;89.58
72677;BME280;60755;51.374;10.662;2023-12-29T11:08:00;96509.69;;;9.41;90.56
72677;BME280;60755;51.374;10.662;2023-12-29T11:10:29;96510.91;;;9.55;89.50
72677;BME280;60755;51.374;10.662;2023-12-29T11:12:57;96508.03;;;9.57;88.90
72677;BME280;60755;51.374;10.662;2023-12-29T11:15:25;96512.16;;;9.74;88.80
72677;BME280;60755;51.374;10.662;2023-12-29T11:17:55;96515.50;;;9.70;88.41
72677;BME280;60755;51.374;10.662;2023-12-29T11:20:23;96511.38;;;9.74;88.75
72677;BME280;60755;51.374;10.662;2023-12-29T11:22:52;96510.06;;;9.76;88.81
72677;BME280;60755;51.374;10.662;2023-12-29T11:25:19;96514.63;;;9.86;88.00
72677;BME280;60755;51.374;10.662;2023-12-29T11:27:48;96516.28;;;9.43;90.15
72677;BME280;60755;51.374;10.662;2023-12-29T11:30:15;96512.78;;;9.60;89.38
72677;BME280;60755;51.374;10.662;2023-12-29T11:32:47;96512.78;;;9.38;91.16
72677;BME280;60755;51.374;10.662;2023-12-29T11:35:18;96514.78;;;9.52;88.93
72677;BME280;60755;51.374;10.662;2023-12-29T11:38:03;96509.63;;;9.58;89.62
72677;BME280;60755;51.374;10.662;2023-12-29T11:40:41;96502.78;;;9.57;89.72
72677;BME280;60755;51.374;10.662;2023-12-29T11:43:14;96509.09;;;9.34;91.09
72677;BME280;60755;51.374;10.662;2023-12-29T11:45:42;96508.28;;;9.33;91.19
72677;BME280;60755;51.374;10.662;2023-12-29T11:48:10;96513.34;;;9.40;90.93
72677;BME280;60755;51.374;10.662;2023-12-29T11:50:38;96500.28;;;9.45;90.76
72677;BME280;60755;51.374;10.662;2023-12-29T11:53:06;96494.06;;;9.29;92.54
72677;BME280;60755;51.374;10.662;2023-12-29T11:55:34;96492.06;;;9.36;90.95
72677;BME280;60755;51.374;10.662;2023-12-29T11:58:02;96484.34;;;9.24;91.08
72677;BME280;60755;51.374;10.662;2023-12-29T12:00:45;96489.94;;;9.11;92.95
72677;BME280;60755;51.374;10.662;2023-12-29T12:03:14;96494.56;;;9.26;92.83
72677;BME280;60755;51.374;10.662;2023-12-29T12:05:45;96491.34;;;9.19;92.25
72677;BME280;60755;51.374;10.662;2023-12-29T12:08:27;96490.38;;;9.25;92.07
72677;BME280;60755;51.374;10.662;2023-12-29T12:10:54;96487.50;;;9.27;91.77
72677;BME280;60755;51.374;10.662;2023-12-29T12:13:43;96485.16;;;9.30;91.34
72677;BME280;60755;51.374;10.662;2023-12-29T12:16:46;96486.00;;;9.31;92.09
72677;BME280;60755;51.374;10.662;2023-12-29T12:19:15;96475.00;;;9.34;91.81
72677;BME280;60755;51.374;10.662;2023-12-29T12:21:45;96461.13;;;9.38;91.61
72677;BME280;60755;51.374;10.662;2023-12-29T12:24:13;96481.63;;;9.41;91.45
72677;BME280;60755;51.374;10.662;2023-12-29T12:26:41;96469.38;;;9.47;90.90
72677;BME280;60755;51.374;10.662;2023-12-29T12:29:08;96473.59;;;9.75;90.65
72677;BME280;60755;51.374;10.662;2023-12-29T12:31:37;96470.19;;;9.74;89.66
72677;BME280;60755;51.374;10.662;2023-12-29T12:34:04;96463.81;;;9.97;89.72
72677;BME280;60755;51.374;10.662;2023-12-29T12:36:31;96471.69;;;9.97;88.88
72677;BME280;60755;51.374;10.662;2023-12-29T12:38:58;96462.44;;;10.22;86.73
72677;BME280;60755;51.374;10.662;2023-12-29T12:41:26;96458.50;;;9.87;87.95
72677;BME280;60755;51.374;10.662;2023-12-29T12:44:01;96455.31;;;9.85;88.55
72677;BME280;60755;51.374;10.662;2023-12-29T12:46:34;96447.56;;;10.00;86.88
72677;BME280;60755;51.374;10.662;2023-12-29T12:49:04;96452.34;;;10.03;88.37
72677;BME280;60755;51.374;10.662;2023-12-29T12:51:32;96451.88;;;9.79;88.05
72677;BME280;60755;51.374;10.662;2023-12-29T12:54:00;96439.56;;;9.85;88.04
72677;BME280;60755;51.374;10.662;2023-12-29T12:56:27;96433.31;;;9.91;87.48
72677;BME280;60755;51.374;10.662;2023-12-29T12:58:56;96439.78;;;10.11;87.18
72677;BME280;60755;51.374;10.662;2023-12-29T13:01:24;96440.91;;;10.20;86.40
72677;BME280;60755;51.374;10.662;2023-12-29T13:03:52;96440.22;;;9.97;87.26
72677;BME280;60755;51.374;10.662;2023-12-29T13:06:21;96438.53;;;9.86;86.96